createdAt,value
2022-10-09T00:01:21.561Z,3.70
2022-10-09T00:03:51.729Z,3.70
2022-10-09T00:06:22.034Z,3.90
2022-10-09T00:08:49.977Z,3.90
2022-10-09T00:11:20.061Z,3.80
2022-10-09T00:13:48.335Z,3.90
2022-10-09T00:16:18.691Z,3.90
2022-10-09T00:18:46.988Z,4.00
2022-10-09T00:21:23.290Z,4.00
2022-10-09T00:23:53.050Z,3.90
2022-10-09T00:26:20.907Z,3.70
2022-10-09T00:28:49.403Z,3.70
2022-10-09T00:31:18.987Z,3.60
2022-10-09T00:33:46.879Z,3.50
2022-10-09T00:36:17.291Z,3.30
2022-10-09T00:38:45.492Z,3.20
2022-10-09T00:41:16.393Z,3.20
2022-10-09T00:43:47.325Z,3.20
2022-10-09T00:46:29.541Z,3.20
2022-10-09T00:49:04.470Z,3.30
2022-10-09T00:51:34.623Z,3.30
2022-10-09T00:54:05.741Z,3.40
2022-10-09T00:56:34.756Z,3.40
2022-10-09T00:59:04.262Z,3.40
2022-10-09T01:01:33.505Z,3.40
2022-10-09T01:04:01.347Z,3.60
2022-10-09T01:06:41.687Z,4.50
2022-10-09T01:09:14.921Z,4.20
2022-10-09T01:11:50.234Z,4.20
2022-10-09T01:14:23.431Z,4.00
2022-10-09T01:17:02.215Z,3.80
2022-10-09T01:19:52.002Z,3.90
2022-10-09T01:22:33.755Z,3.80
2022-10-09T01:25:07.482Z,3.70
2022-10-09T01:27:38.493Z,3.80
2022-10-09T01:30:08.897Z,3.60
2022-10-09T01:32:39.598Z,3.60
2022-10-09T01:35:09.692Z,3.70
2022-10-09T01:37:40.148Z,3.60
2022-10-09T01:40:09.867Z,3.60
2022-10-09T01:42:39.986Z,3.60
2022-10-09T01:45:08.807Z,4.60
2022-10-09T01:47:37.904Z,4.70
2022-10-09T01:50:12.074Z,4.60
2022-10-09T01:52:45.157Z,4.70
2022-10-09T01:55:27.302Z,4.70
2022-10-09T01:58:03.059Z,4.50
2022-10-09T02:00:34.621Z,4.50
2022-10-09T02:03:05.713Z,4.20
2022-10-09T02:05:34.278Z,4.30
2022-10-09T02:08:02.265Z,4.20
2022-10-09T02:10:31.498Z,4.00
2022-10-09T02:13:02.619Z,3.90
2022-10-09T02:15:35.732Z,4.40
2022-10-09T02:18:08.968Z,4.30
2022-10-09T02:20:43.246Z,4.10
2022-10-09T02:23:14.231Z,4.00
2022-10-09T02:25:42.413Z,3.90
2022-10-09T02:28:12.327Z,4.00
2022-10-09T02:30:48.675Z,3.90
2022-10-09T02:33:16.447Z,3.80
2022-10-09T02:35:44.589Z,3.70
2022-10-09T02:38:12.394Z,3.60
2022-10-09T02:40:40.214Z,4.10
2022-10-09T02:43:08.002Z,4.00
2022-10-09T02:45:37.196Z,3.80
2022-10-09T02:48:05.070Z,3.70
2022-10-09T02:50:32.871Z,3.50
2022-10-09T02:53:00.708Z,3.50
2022-10-09T02:55:28.511Z,3.50
2022-10-09T02:57:56.311Z,3.40
2022-10-09T03:00:24.093Z,3.50
2022-10-09T03:02:53.563Z,3.40
2022-10-09T03:05:21.683Z,3.30
2022-10-09T03:07:53.057Z,3.40
2022-10-09T03:10:21.426Z,3.30
2022-10-09T03:12:49.611Z,3.40
2022-10-09T03:15:17.805Z,3.30
2022-10-09T03:17:45.570Z,3.40
2022-10-09T03:20:15.225Z,3.40
2022-10-09T03:22:43.130Z,3.50
2022-10-09T03:25:11.040Z,3.40
2022-10-09T03:27:38.807Z,3.40
2022-10-09T03:30:07.880Z,3.40
2022-10-09T03:32:35.653Z,3.20
2022-10-09T03:35:03.837Z,3.20
2022-10-09T03:37:32.993Z,3.10
2022-10-09T03:40:00.816Z,3.10
2022-10-09T03:42:28.662Z,3.30
2022-10-09T03:44:57.517Z,3.20
2022-10-09T03:47:25.368Z,3.10
2022-10-09T03:49:53.171Z,3.10
2022-10-09T03:52:20.963Z,3.10
2022-10-09T03:54:50.083Z,3.00
2022-10-09T03:57:17.872Z,2.90
2022-10-09T03:59:45.677Z,3.00
2022-10-09T04:02:13.518Z,2.90
2022-10-09T04:04:41.368Z,3.00
2022-10-09T04:07:09.151Z,3.20
2022-10-09T04:09:36.991Z,3.20
2022-10-09T04:12:06.333Z,3.10
2022-10-09T04:14:34.138Z,3.10
2022-10-09T04:17:01.941Z,3.00
2022-10-09T04:19:29.773Z,2.90
2022-10-09T04:21:57.562Z,2.80
2022-10-09T04:24:25.374Z,2.90
2022-10-09T04:26:53.892Z,2.90
2022-10-09T04:29:23.074Z,2.90
2022-10-09T04:31:50.928Z,2.80
2022-10-09T04:34:18.741Z,2.90
2022-10-09T04:36:46.573Z,2.90
2022-10-09T04:39:14.479Z,2.80
2022-10-09T04:41:42.261Z,2.60
2022-10-09T04:44:10.081Z,2.60
2022-10-09T04:46:39.261Z,2.60
2022-10-09T04:49:07.125Z,2.50
2022-10-09T04:51:34.889Z,2.50
2022-10-09T04:54:02.697Z,2.40
2022-10-09T04:56:30.501Z,2.30
2022-10-09T04:58:58.315Z,2.50
2022-10-09T05:01:28.412Z,2.70
2022-10-09T05:03:57.865Z,2.50
2022-10-09T05:06:26.413Z,2.40
2022-10-09T05:08:55.109Z,2.40
2022-10-09T05:11:25.124Z,2.40
2022-10-09T05:13:54.881Z,2.30
2022-10-09T05:16:24.937Z,2.40
2022-10-09T05:18:55.335Z,2.40
2022-10-09T05:21:25.191Z,2.30
2022-10-09T05:23:55.137Z,2.20
2022-10-09T05:26:25.116Z,2.20
2022-10-09T05:28:53.426Z,2.10
2022-10-09T05:31:23.200Z,2.10
2022-10-09T05:33:51.058Z,2.00
2022-10-09T05:36:19.364Z,1.90
2022-10-09T05:38:48.931Z,1.80
2022-10-09T05:41:18.281Z,1.80
2022-10-09T05:43:47.904Z,1.80
2022-10-09T05:46:17.796Z,2.00
2022-10-09T05:48:47.295Z,1.90
2022-10-09T05:51:17.998Z,1.90
2022-10-09T05:53:48.655Z,1.90
2022-10-09T05:56:18.771Z,1.90
2022-10-09T05:58:51.054Z,1.90
2022-10-09T06:01:19.046Z,2.10
2022-10-09T06:03:49.666Z,2.10
2022-10-09T06:06:18.266Z,2.00
2022-10-09T06:08:46.093Z,2.10
2022-10-09T06:11:17.656Z,2.40
2022-10-09T06:13:46.315Z,2.70
2022-10-09T06:16:16.452Z,2.80
2022-10-09T06:18:49.417Z,3.10
2022-10-09T06:21:17.904Z,3.10
2022-10-09T06:23:46.092Z,3.00
2022-10-09T06:26:15.457Z,3.30
2022-10-09T06:28:43.406Z,3.60
2022-10-09T06:31:13.624Z,4.00
2022-10-09T06:33:43.142Z,4.40
2022-10-09T06:36:13.014Z,4.50
2022-10-09T06:38:41.596Z,4.80
2022-10-09T06:41:11.377Z,5.20
2022-10-09T06:43:40.886Z,5.10
2022-10-09T06:46:10.693Z,4.40
2022-10-09T06:48:39.984Z,3.90
2022-10-09T06:51:09.718Z,3.80
2022-10-09T06:53:38.323Z,3.40
2022-10-09T06:56:07.116Z,3.30
2022-10-09T06:58:35.080Z,3.40
2022-10-09T07:01:06.354Z,3.60
2022-10-09T07:03:34.640Z,3.80
2022-10-09T07:06:10.651Z,3.90
2022-10-09T07:08:39.486Z,4.10
2022-10-09T07:11:12.056Z,4.50
2022-10-09T07:13:40.433Z,5.00
2022-10-09T07:16:10.001Z,5.00
2022-10-09T07:18:38.464Z,5.20
2022-10-09T07:21:08.916Z,5.40
2022-10-09T07:23:37.435Z,5.30
2022-10-09T07:26:12.364Z,5.20
2022-10-09T07:28:41.180Z,5.40
2022-10-09T07:31:11.480Z,5.60
2022-10-09T07:33:40.084Z,5.30
2022-10-09T07:36:08.950Z,5.20
2022-10-09T07:38:36.960Z,5.20
2022-10-09T07:41:06.999Z,5.40
2022-10-09T07:43:36.919Z,5.90
2022-10-09T07:46:07.466Z,6.00
2022-10-09T07:48:36.800Z,5.70
2022-10-09T07:51:10.054Z,5.80
2022-10-09T07:53:37.946Z,6.20
2022-10-09T07:56:06.667Z,6.50
2022-10-09T07:58:35.003Z,6.70
2022-10-09T08:01:07.064Z,7.00
2022-10-09T08:03:37.294Z,7.10
2022-10-09T08:06:05.794Z,7.30
2022-10-09T08:08:34.055Z,7.60
2022-10-09T08:11:08.690Z,7.60
2022-10-09T08:13:36.514Z,7.60
2022-10-09T08:16:04.401Z,7.70
2022-10-09T08:18:32.387Z,7.90
2022-10-09T08:21:03.182Z,8.00
2022-10-09T08:23:31.310Z,8.30
2022-10-09T08:26:00.055Z,8.20
2022-10-09T08:28:27.881Z,8.50
2022-10-09T08:30:55.777Z,8.60
2022-10-09T08:33:24.936Z,8.90
2022-10-09T08:35:53.118Z,9.00
2022-10-09T08:38:45.482Z,9.10
2022-10-09T08:41:15.134Z,9.00
2022-10-09T08:43:48.174Z,9.70
2022-10-09T08:46:21.206Z,10.10
2022-10-09T08:48:51.473Z,10.50
2022-10-09T08:51:23.965Z,10.90
2022-10-09T08:53:59.950Z,11.40
2022-10-09T08:56:29.867Z,10.90
2022-10-09T08:58:57.993Z,10.80
2022-10-09T09:01:34.574Z,11.20
2022-10-09T09:04:33.208Z,11.60
2022-10-09T09:07:08.453Z,11.90
2022-10-09T09:09:47.032Z,12.10
2022-10-09T09:12:21.493Z,12.20
2022-10-09T09:15:01.753Z,12.40
2022-10-09T09:17:38.677Z,12.50
2022-10-09T09:20:16.228Z,12.70
2022-10-09T09:22:48.549Z,13.00
2022-10-09T09:25:22.960Z,13.30
2022-10-09T09:27:53.245Z,13.20
2022-10-09T09:30:30.062Z,12.90
2022-10-09T09:33:02.588Z,12.70
2022-10-09T09:35:37.032Z,12.80
2022-10-09T09:38:04.874Z,12.80
2022-10-09T09:40:37.342Z,12.80
2022-10-09T09:43:13.815Z,12.70
2022-10-09T09:45:43.751Z,12.80
2022-10-09T09:48:16.031Z,12.90
2022-10-09T09:50:59.899Z,12.90
2022-10-09T09:53:36.911Z,12.90
2022-10-09T09:56:06.641Z,12.70
2022-10-09T09:58:37.101Z,12.70
2022-10-09T10:01:07.577Z,12.80
2022-10-09T10:03:36.686Z,12.70
2022-10-09T10:06:04.741Z,12.70
2022-10-09T10:08:34.329Z,12.80
2022-10-09T10:11:04.506Z,12.90
2022-10-09T10:13:37.946Z,13.00
2022-10-09T10:16:07.900Z,13.00
2022-10-09T10:18:40.200Z,13.00
2022-10-09T10:21:12.291Z,13.20
2022-10-09T10:23:42.854Z,13.30
2022-10-09T10:26:21.509Z,13.40
2022-10-09T10:28:54.352Z,13.50
2022-10-09T10:31:36.462Z,13.50
2022-10-09T10:34:06.183Z,13.70
2022-10-09T10:36:34.820Z,13.80
2022-10-09T10:39:12.090Z,13.90
2022-10-09T10:41:45.805Z,13.80
2022-10-09T10:44:21.291Z,13.80
2022-10-09T10:46:54.211Z,13.80
2022-10-09T10:49:24.080Z,13.60
2022-10-09T10:52:04.358Z,13.60
2022-10-09T10:54:38.669Z,13.80
2022-10-09T10:57:15.437Z,13.70
2022-10-09T10:59:51.987Z,13.80
2022-10-09T11:02:54.066Z,14.00
2022-10-09T11:05:37.378Z,14.00
2022-10-09T11:08:34.015Z,14.10
2022-10-09T11:11:09.772Z,14.10
2022-10-09T11:13:47.298Z,14.00
2022-10-09T11:16:35.055Z,13.90
2022-10-09T11:19:16.177Z,13.90
2022-10-09T11:21:56.151Z,13.80
2022-10-09T11:24:48.786Z,13.80
2022-10-09T11:27:23.327Z,14.00
2022-10-09T11:29:57.677Z,14.10
2022-10-09T11:32:33.440Z,14.00
2022-10-09T11:35:06.440Z,14.10
2022-10-09T11:37:39.210Z,14.00
2022-10-09T11:40:15.634Z,14.10
2022-10-09T11:42:43.923Z,13.90
2022-10-09T11:45:23.123Z,13.90
2022-10-09T11:48:00.424Z,13.90
2022-10-09T11:50:40.588Z,14.00
2022-10-09T11:53:11.695Z,13.90
2022-10-09T11:55:39.948Z,13.90
2022-10-09T11:58:21.101Z,14.10
2022-10-09T12:01:13.066Z,14.20
2022-10-09T12:03:43.163Z,14.20
2022-10-09T12:06:13.966Z,14.30
2022-10-09T12:08:44.226Z,14.30
2022-10-09T12:11:15.440Z,14.20
2022-10-09T12:13:46.996Z,14.10
2022-10-09T12:16:34.207Z,14.40
2022-10-09T12:19:05.665Z,14.50
2022-10-09T12:21:38.855Z,14.60
2022-10-09T12:24:07.952Z,14.80
2022-10-09T12:26:36.911Z,14.70
2022-10-09T12:29:05.836Z,14.70
2022-10-09T12:31:37.190Z,14.80
2022-10-09T12:34:17.696Z,15.10
2022-10-09T12:36:45.682Z,15.00
2022-10-09T12:39:15.230Z,14.90
2022-10-09T12:41:46.595Z,15.00
2022-10-09T12:44:30.035Z,15.00
2022-10-09T12:47:02.582Z,15.10
2022-10-09T12:49:32.581Z,15.10
2022-10-09T12:52:01.584Z,15.00
2022-10-09T12:54:32.005Z,14.90
2022-10-09T12:57:01.609Z,15.00
2022-10-09T12:59:30.366Z,14.80
2022-10-09T13:02:00.995Z,14.80
2022-10-09T13:04:33.648Z,14.90
2022-10-09T13:07:07.637Z,15.10
2022-10-09T13:09:38.172Z,15.20
2022-10-09T13:12:09.292Z,15.10
2022-10-09T13:14:44.012Z,14.60
2022-10-09T13:17:25.529Z,14.50
2022-10-09T13:19:56.504Z,14.40
2022-10-09T13:22:25.436Z,14.30
2022-10-09T13:24:55.398Z,14.40
2022-10-09T13:27:26.877Z,14.30
2022-10-09T13:29:55.510Z,14.40
2022-10-09T13:32:24.274Z,14.40
2022-10-09T13:34:54.945Z,14.40
2022-10-09T13:37:25.745Z,14.40
2022-10-09T13:39:53.827Z,14.50
2022-10-09T13:42:22.965Z,14.50
2022-10-09T13:44:50.920Z,14.70
2022-10-09T13:47:24.071Z,14.80
2022-10-09T13:49:52.682Z,14.80
2022-10-09T13:52:20.643Z,14.80
2022-10-09T13:54:49.964Z,14.80
2022-10-09T13:57:18.152Z,15.10
2022-10-09T13:59:46.070Z,15.10
2022-10-09T14:02:14.067Z,15.10
2022-10-09T14:04:42.690Z,15.10
2022-10-09T14:07:10.598Z,15.20
2022-10-09T14:09:38.710Z,15.10
2022-10-09T14:12:07.961Z,15.10
2022-10-09T14:14:36.029Z,15.00
2022-10-09T14:17:03.945Z,14.90
2022-10-09T14:19:32.073Z,14.90
2022-10-09T14:22:00.137Z,14.90
2022-10-09T14:24:28.141Z,14.90
2022-10-09T14:26:56.047Z,14.90
2022-10-09T14:29:25.215Z,14.80
2022-10-09T14:31:53.271Z,14.50
2022-10-09T14:34:21.855Z,14.30
2022-10-09T14:36:49.866Z,14.30
2022-10-09T14:39:17.939Z,14.50
2022-10-09T14:41:46.146Z,14.40
2022-10-09T14:44:14.268Z,14.60
2022-10-09T14:46:43.608Z,14.60
2022-10-09T14:49:12.085Z,14.50
2022-10-09T14:51:41.583Z,14.40
2022-10-09T14:54:10.405Z,14.30
2022-10-09T14:56:38.531Z,14.40
2022-10-09T14:59:06.987Z,14.50
2022-10-09T15:01:35.859Z,14.10
2022-10-09T15:04:06.445Z,14.00
2022-10-09T15:06:34.937Z,13.90
2022-10-09T15:09:05.793Z,14.00
2022-10-09T15:11:35.530Z,14.00
2022-10-09T15:14:03.817Z,13.90
2022-10-09T15:16:31.781Z,13.80
2022-10-09T15:19:00.548Z,13.80
2022-10-09T15:21:31.588Z,13.80
2022-10-09T15:24:01.282Z,13.70
2022-10-09T15:26:32.702Z,13.80
2022-10-09T15:29:02.577Z,13.90
2022-10-09T15:31:32.446Z,13.90
2022-10-09T15:34:01.921Z,13.90
2022-10-09T15:36:35.081Z,13.90
2022-10-09T15:39:06.049Z,13.80
2022-10-09T15:41:36.165Z,13.80
2022-10-09T15:44:07.053Z,13.70
2022-10-09T15:46:35.324Z,13.70
2022-10-09T15:49:03.203Z,13.60
2022-10-09T15:51:33.215Z,13.60
2022-10-09T15:54:01.500Z,13.50
2022-10-09T15:56:30.655Z,13.40
2022-10-09T15:58:59.101Z,13.40
2022-10-09T16:01:27.167Z,13.30
2022-10-09T16:03:55.324Z,13.40
2022-10-09T16:06:24.546Z,13.30
2022-10-09T16:08:56.680Z,13.20
2022-10-09T16:11:26.534Z,13.20
2022-10-09T16:13:55.503Z,13.20
2022-10-09T16:16:25.599Z,13.00
2022-10-09T16:18:53.541Z,12.90
2022-10-09T16:21:23.909Z,12.90
2022-10-09T16:23:58.095Z,12.80
2022-10-09T16:26:27.788Z,12.70
2022-10-09T16:28:55.696Z,12.70
2022-10-09T16:31:25.170Z,12.70
2022-10-09T16:33:53.473Z,12.60
2022-10-09T16:36:21.772Z,12.60
2022-10-09T16:38:49.965Z,12.50
2022-10-09T16:41:21.656Z,12.40
2022-10-09T16:43:52.071Z,12.30
2022-10-09T16:46:22.986Z,12.20
2022-10-09T16:48:51.927Z,12.10
2022-10-09T16:51:22.070Z,12.10
2022-10-09T16:53:51.086Z,12.00
2022-10-09T16:56:22.341Z,12.00
2022-10-09T16:58:50.867Z,12.00
2022-10-09T17:01:18.718Z,11.90
2022-10-09T17:03:46.884Z,11.80
2022-10-09T17:06:19.351Z,11.70
2022-10-09T17:08:47.488Z,11.50
2022-10-09T17:11:16.799Z,11.50
2022-10-09T17:13:46.762Z,11.50
2022-10-09T17:16:18.437Z,11.50
2022-10-09T17:18:47.326Z,11.50
2022-10-09T17:21:16.524Z,11.40
2022-10-09T17:23:44.364Z,11.50
2022-10-09T17:26:14.550Z,11.50
2022-10-09T17:28:43.420Z,11.60
2022-10-09T17:31:15.137Z,11.60
2022-10-09T17:33:45.900Z,11.60
2022-10-09T17:36:15.461Z,11.60
2022-10-09T17:38:43.715Z,11.70
2022-10-09T17:41:13.602Z,11.70
2022-10-09T17:43:42.349Z,11.80
2022-10-09T17:46:14.053Z,11.80
2022-10-09T17:48:52.370Z,11.90
2022-10-09T17:51:23.797Z,11.90
2022-10-09T17:53:52.312Z,11.90
2022-10-09T17:56:20.222Z,12.00
2022-10-09T17:58:49.409Z,12.00
2022-10-09T18:01:19.263Z,11.90
2022-10-09T18:03:47.305Z,11.90
2022-10-09T18:06:18.733Z,11.90
2022-10-09T18:08:47.021Z,11.90
2022-10-09T18:11:17.498Z,11.80
2022-10-09T18:13:46.706Z,11.80
2022-10-09T18:16:16.237Z,11.70
2022-10-09T18:18:45.799Z,11.70
2022-10-09T18:21:16.792Z,11.70
2022-10-09T18:23:46.354Z,11.70
2022-10-09T18:26:16.913Z,11.70
2022-10-09T18:28:48.201Z,11.70
2022-10-09T18:31:21.156Z,11.70
2022-10-09T18:33:50.819Z,11.70
2022-10-09T18:36:21.060Z,11.60
2022-10-09T18:38:50.159Z,11.60
2022-10-09T18:41:18.710Z,11.60
2022-10-09T18:43:46.584Z,11.60
2022-10-09T18:46:15.339Z,11.60
2022-10-09T18:48:43.839Z,11.60
2022-10-09T18:51:17.177Z,11.60
2022-10-09T18:53:48.227Z,11.60
2022-10-09T18:56:18.585Z,11.60
2022-10-09T18:58:48.202Z,11.60
2022-10-09T19:01:16.108Z,11.60
2022-10-09T19:03:46.129Z,11.60
2022-10-09T19:06:19.219Z,11.50
2022-10-09T19:08:47.576Z,11.50
2022-10-09T19:11:15.467Z,11.40
2022-10-09T19:13:43.435Z,11.40
2022-10-09T19:16:11.916Z,11.30
2022-10-09T19:18:39.778Z,11.30
2022-10-09T19:21:07.880Z,11.20
2022-10-09T19:23:37.032Z,11.20
2022-10-09T19:26:04.948Z,11.20
2022-10-09T19:28:37.549Z,11.20
2022-10-09T19:31:06.521Z,11.20
2022-10-09T19:33:34.607Z,11.20
2022-10-09T19:36:02.460Z,11.20
2022-10-09T19:38:30.324Z,11.20
2022-10-09T19:41:04.335Z,11.30
2022-10-09T19:43:32.755Z,11.30
2022-10-09T19:46:05.370Z,11.20
2022-10-09T19:48:33.453Z,11.20
2022-10-09T19:51:06.976Z,11.30
2022-10-09T19:53:34.879Z,11.20
2022-10-09T19:56:09.295Z,11.20
2022-10-09T19:58:39.621Z,11.20
2022-10-09T20:01:08.815Z,11.20
2022-10-09T20:03:36.685Z,11.10
2022-10-09T20:06:05.275Z,11.10
2022-10-09T20:08:33.172Z,11.20
2022-10-09T20:11:03.474Z,11.20
2022-10-09T20:13:31.387Z,11.20
2022-10-09T20:16:00.659Z,11.20
2022-10-09T20:18:28.586Z,11.20
2022-10-09T20:20:57.062Z,11.10
2022-10-09T20:23:24.843Z,11.10
2022-10-09T20:26:00.399Z,11.10
2022-10-09T20:28:31.714Z,11.10
2022-10-09T20:31:00.731Z,11.10
2022-10-09T20:33:28.738Z,11.20
2022-10-09T20:35:56.512Z,11.20
2022-10-09T20:38:25.912Z,11.20
2022-10-09T20:40:53.927Z,11.10
2022-10-09T20:43:21.729Z,11.10
2022-10-09T20:45:50.861Z,11.10
2022-10-09T20:48:18.734Z,11.00
2022-10-09T20:50:46.531Z,11.00
2022-10-09T20:53:14.426Z,10.90
2022-10-09T20:55:42.240Z,10.80
2022-10-09T20:58:10.051Z,10.60
2022-10-09T21:00:42.772Z,10.50
2022-10-09T21:03:12.667Z,10.40
2022-10-09T21:05:44.023Z,10.20
2022-10-09T21:08:12.064Z,10.10
2022-10-09T21:10:43.981Z,10.00
2022-10-09T21:13:11.847Z,9.90
2022-10-09T21:15:43.683Z,9.80
2022-10-09T21:18:13.573Z,9.70
2022-10-09T21:20:42.754Z,9.60
2022-10-09T21:23:12.675Z,9.50
2022-10-09T21:25:46.950Z,9.50
2022-10-09T21:28:14.756Z,9.40
2022-10-09T21:30:42.591Z,9.30
2022-10-09T21:33:12.303Z,9.20
2022-10-09T21:35:41.358Z,9.20
2022-10-09T21:38:12.964Z,9.10
2022-10-09T21:40:41.086Z,9.10
2022-10-09T21:43:10.452Z,9.00
2022-10-09T21:45:38.715Z,9.00
2022-10-09T21:48:07.557Z,9.00
2022-10-09T21:50:37.778Z,8.90
2022-10-09T21:53:05.705Z,8.80
2022-10-09T21:55:33.552Z,8.70
2022-10-09T21:58:01.363Z,8.70
2022-10-09T22:00:29.314Z,8.60
2022-10-09T22:02:57.113Z,8.60
2022-10-09T22:05:24.933Z,8.60
2022-10-09T22:07:54.065Z,8.60
2022-10-09T22:10:21.938Z,8.50
2022-10-09T22:12:50.019Z,8.50
2022-10-09T22:15:18.151Z,8.40
2022-10-09T22:17:46.014Z,8.40
2022-10-09T22:20:14.071Z,8.30
2022-10-09T22:22:42.057Z,8.20
2022-10-09T22:25:11.581Z,8.10
2022-10-09T22:27:39.354Z,8.10
2022-10-09T22:30:08.501Z,8.10
2022-10-09T22:32:36.295Z,8.00
2022-10-09T22:35:04.159Z,8.00
2022-10-09T22:37:31.949Z,8.00
2022-10-09T22:39:59.741Z,8.10
2022-10-09T22:42:29.443Z,8.10
2022-10-09T22:44:57.214Z,8.20
2022-10-09T22:47:25.026Z,8.20
2022-10-09T22:49:52.877Z,8.20
2022-10-09T22:52:20.725Z,8.20
2022-10-09T22:54:48.497Z,8.20
2022-10-09T22:57:16.350Z,8.20
2022-10-09T22:59:45.977Z,8.10
2022-10-09T23:02:15.003Z,8.10
2022-10-09T23:04:42.814Z,8.10
2022-10-09T23:07:11.121Z,8.10
2022-10-09T23:09:38.951Z,8.00
2022-10-09T23:12:06.793Z,8.00
2022-10-09T23:14:34.583Z,8.10
2022-10-09T23:17:03.739Z,8.10
2022-10-09T23:19:31.554Z,8.10
2022-10-09T23:21:59.361Z,8.10
2022-10-09T23:24:27.158Z,8.20
2022-10-09T23:26:54.946Z,8.20
2022-10-09T23:29:22.810Z,8.20
2022-10-09T23:31:53.243Z,8.20
2022-10-09T23:34:22.465Z,8.30
2022-10-09T23:36:50.257Z,8.30
2022-10-09T23:39:18.080Z,8.30
2022-10-09T23:41:45.881Z,8.40
2022-10-09T23:44:13.728Z,8.40
2022-10-09T23:46:41.856Z,8.40
2022-10-09T23:49:10.803Z,8.40
2022-10-09T23:51:39.957Z,8.50
2022-10-09T23:54:07.882Z,8.50
2022-10-09T23:56:37.279Z,8.60
2022-10-09T23:59:07.036Z,8.70
